createdAt,value
2018-12-15T00:02:06.517Z,80.00
2018-12-15T00:04:35.548Z,96.87
2018-12-15T00:07:04.736Z,89.00
2018-12-15T00:09:33.676Z,93.13
2018-12-15T00:12:02.932Z,101.07
2018-12-15T00:14:31.896Z,100.13
2018-12-15T00:17:05.745Z,92.90
2018-12-15T00:19:31.884Z,94.90
2018-12-15T00:22:00.940Z,86.53
2018-12-15T00:24:29.934Z,86.00
2018-12-15T00:26:58.988Z,83.57
2018-12-15T00:29:27.916Z,84.90
2018-12-15T00:31:57.053Z,87.20
2018-12-15T00:34:25.857Z,86.60
2018-12-15T00:36:54.742Z,86.57
2018-12-15T00:39:23.619Z,83.87
2018-12-15T00:41:52.624Z,84.83
2018-12-15T00:44:21.501Z,85.00
2018-12-15T00:46:50.547Z,86.47
2018-12-15T00:49:19.170Z,84.83
2018-12-15T00:51:48.007Z,85.60
2018-12-15T00:54:16.976Z,92.70
2018-12-15T00:56:45.968Z,90.03
2018-12-15T00:59:14.843Z,87.07
2018-12-15T01:01:43.766Z,84.33
2018-12-15T01:04:12.489Z,88.43
2018-12-15T01:06:41.175Z,85.23
2018-12-15T01:09:10.092Z,78.43
2018-12-15T01:11:38.995Z,88.57
2018-12-15T01:14:07.998Z,83.63
2018-12-15T01:16:36.948Z,87.47
2018-12-15T01:19:06.007Z,88.07
2018-12-15T01:21:34.731Z,87.67
2018-12-15T01:24:03.493Z,87.17
2018-12-15T01:26:32.540Z,91.17
2018-12-15T01:29:01.414Z,87.23
2018-12-15T01:31:30.416Z,87.30
2018-12-15T01:33:59.429Z,92.87
2018-12-15T01:36:28.427Z,93.27
2018-12-15T01:38:57.407Z,86.67
2018-12-15T01:41:26.193Z,86.17
2018-12-15T01:43:55.144Z,89.30
2018-12-15T01:46:24.529Z,82.97
2018-12-15T01:48:53.579Z,88.93
2018-12-15T01:51:22.339Z,88.13
2018-12-15T01:53:51.344Z,87.10
2018-12-15T01:56:20.179Z,89.40
2018-12-15T01:58:49.240Z,96.40
2018-12-15T02:01:18.068Z,84.80
2018-12-15T02:03:47.054Z,81.70
2018-12-15T02:06:15.756Z,75.73
2018-12-15T02:08:44.683Z,82.83
2018-12-15T02:11:13.684Z,84.70
2018-12-15T02:13:42.716Z,83.73
2018-12-15T02:16:11.372Z,83.73
2018-12-15T02:18:40.276Z,85.67
2018-12-15T02:21:09.064Z,84.63
2018-12-15T02:23:38.139Z,86.07
2018-12-15T02:26:07.217Z,92.70
2018-12-15T02:28:36.024Z,92.77
2018-12-15T02:31:05.061Z,83.53
2018-12-15T02:33:34.007Z,88.47
2018-12-15T02:36:03.016Z,91.47
2018-12-15T02:38:31.977Z,86.00
2018-12-15T02:41:01.025Z,92.10
2018-12-15T02:43:30.016Z,91.50
2018-12-15T02:45:59.123Z,84.87
2018-12-15T02:48:27.971Z,88.23
2018-12-15T02:50:56.942Z,86.70
2018-12-15T02:53:25.738Z,85.47
2018-12-15T02:55:54.886Z,88.90
2018-12-15T02:58:23.955Z,80.70
2018-12-15T03:00:52.976Z,90.17
2018-12-15T03:03:21.798Z,84.67
2018-12-15T03:05:50.802Z,83.83
2018-12-15T03:08:19.720Z,78.87
2018-12-15T03:10:48.571Z,78.40
2018-12-15T03:13:17.496Z,86.40
2018-12-15T03:15:46.428Z,89.93
2018-12-15T03:18:15.414Z,87.17
2018-12-15T03:20:53.975Z,82.57
2018-12-15T03:23:22.900Z,92.50
2018-12-15T03:25:51.941Z,85.47
2018-12-15T03:28:20.922Z,85.50
2018-12-15T03:30:49.907Z,89.77
2018-12-15T03:33:18.919Z,84.83
2018-12-15T03:35:47.915Z,86.53
2018-12-15T03:38:16.798Z,79.00
2018-12-15T03:40:45.459Z,83.57
2018-12-15T03:43:14.456Z,81.07
2018-12-15T03:45:43.310Z,76.90
2018-12-15T03:48:12.252Z,77.77
2018-12-15T03:50:41.308Z,75.20
2018-12-15T03:53:09.937Z,70.60
2018-12-15T03:55:38.681Z,74.70
2018-12-15T03:58:07.633Z,75.40
2018-12-15T04:00:36.663Z,72.53
2018-12-15T04:03:05.634Z,68.57
2018-12-15T04:05:34.629Z,68.37
2018-12-15T04:08:03.805Z,71.03
2018-12-15T04:10:32.545Z,71.60
2018-12-15T04:13:01.226Z,64.67
2018-12-15T04:15:30.140Z,73.73
2018-12-15T04:18:03.711Z,69.33
2018-12-15T04:20:29.716Z,67.00
2018-12-15T04:22:58.763Z,70.07
2018-12-15T04:25:27.778Z,69.00
2018-12-15T04:27:56.808Z,68.87
2018-12-15T04:30:25.529Z,71.27
2018-12-15T04:32:54.176Z,72.13
2018-12-15T04:35:23.232Z,72.27
2018-12-15T04:37:52.220Z,74.87
2018-12-15T04:40:21.615Z,74.97
2018-12-15T04:42:50.492Z,82.73
2018-12-15T04:45:19.401Z,82.47
2018-12-15T04:47:48.136Z,84.73
2018-12-15T04:50:17.139Z,94.60
2018-12-15T04:52:45.983Z,82.50
2018-12-15T04:55:14.952Z,83.80
2018-12-15T04:57:43.871Z,89.17
2018-12-15T05:00:12.829Z,82.53
2018-12-15T05:02:44.052Z,94.30
2018-12-15T05:05:12.957Z,88.23
2018-12-15T05:07:42.020Z,89.83
2018-12-15T05:10:10.881Z,91.17
2018-12-15T05:12:39.603Z,93.13
2018-12-15T05:15:08.749Z,91.80
2018-12-15T05:17:37.941Z,87.37
2018-12-15T05:20:07.454Z,89.83
2018-12-15T05:22:36.802Z,88.13
2018-12-15T05:25:06.816Z,89.83
2018-12-15T05:27:35.480Z,114.80
2018-12-15T05:30:05.075Z,107.50
2018-12-15T05:32:33.750Z,98.83
2018-12-15T05:35:02.525Z,93.13
2018-12-15T05:37:31.516Z,102.17
2018-12-15T05:40:00.400Z,95.30
2018-12-15T05:42:29.458Z,88.67
2018-12-15T05:44:58.590Z,85.43
2018-12-15T05:47:27.577Z,91.80
2018-12-15T05:49:56.627Z,97.67
2018-12-15T05:52:25.352Z,88.27
2018-12-15T05:54:54.337Z,92.33
2018-12-15T05:57:23.284Z,87.13
2018-12-15T05:59:52.295Z,87.80
2018-12-15T06:02:21.667Z,98.73
2018-12-15T06:04:51.332Z,101.43
2018-12-15T06:07:20.248Z,99.20
2018-12-15T06:09:48.899Z,101.90
2018-12-15T06:12:17.997Z,91.43
2018-12-15T06:14:46.914Z,109.90
2018-12-15T06:17:15.973Z,112.70
2018-12-15T06:19:44.926Z,140.53
2018-12-15T06:22:13.991Z,122.93
2018-12-15T06:24:42.962Z,127.80
2018-12-15T06:27:11.699Z,112.60
2018-12-15T06:29:40.822Z,137.47
2018-12-15T06:32:09.744Z,137.13
2018-12-15T06:34:38.731Z,138.70
2018-12-15T06:37:07.746Z,134.10
2018-12-15T06:39:36.779Z,128.73
2018-12-15T06:42:05.968Z,133.00
2018-12-15T06:44:35.063Z,117.97
2018-12-15T06:47:04.151Z,125.80
2018-12-15T06:49:33.345Z,123.33
2018-12-15T06:52:02.439Z,109.07
2018-12-15T06:54:31.501Z,105.87
2018-12-15T06:57:00.441Z,100.57
2018-12-15T06:59:29.297Z,90.10
2018-12-15T07:01:58.284Z,103.10
2018-12-15T07:04:26.886Z,104.97
2018-12-15T07:06:55.876Z,107.33
2018-12-15T07:09:24.831Z,114.90
2018-12-15T07:11:53.887Z,113.50
2018-12-15T07:14:22.936Z,115.67
2018-12-15T07:16:51.963Z,112.53
2018-12-15T07:19:20.617Z,111.17
2018-12-15T07:21:49.574Z,122.87
2018-12-15T07:24:18.482Z,165.97
2018-12-15T07:26:47.138Z,195.80
2018-12-15T07:29:16.215Z,110.53
2018-12-15T07:31:44.826Z,91.57
2018-12-15T07:34:13.949Z,78.50
2018-12-15T07:36:42.661Z,76.40
2018-12-15T07:39:11.633Z,71.97
2018-12-15T07:41:40.379Z,68.97
2018-12-15T07:44:09.336Z,64.63
2018-12-15T07:46:38.032Z,65.23
2018-12-15T07:49:07.011Z,64.93
2018-12-15T07:51:36.018Z,81.63
2018-12-15T07:54:04.899Z,91.20
2018-12-15T07:56:33.576Z,93.67
2018-12-15T07:59:02.668Z,91.97
2018-12-15T08:01:31.625Z,111.60
2018-12-15T08:04:00.624Z,103.60
2018-12-15T08:06:29.648Z,108.33
2018-12-15T08:08:58.557Z,109.63
2018-12-15T08:11:32.576Z,104.63
2018-12-15T08:14:06.709Z,127.63
2018-12-15T08:16:35.778Z,127.30
2018-12-15T08:19:05.929Z,134.20
2018-12-15T08:21:34.964Z,138.67
2018-12-15T08:24:04.148Z,163.63
2018-12-15T08:26:33.086Z,155.43
2018-12-15T08:29:01.770Z,141.57
2018-12-15T08:31:30.719Z,132.63
2018-12-15T08:33:59.510Z,137.97
2018-12-15T08:36:28.477Z,127.13
2018-12-15T08:38:57.272Z,135.33
2018-12-15T08:41:26.140Z,119.10
2018-12-15T08:43:55.079Z,117.83
2018-12-15T08:46:24.131Z,119.23
2018-12-15T08:48:53.288Z,131.17
2018-12-15T08:51:22.473Z,119.17
2018-12-15T08:53:51.356Z,104.53
2018-12-15T08:56:20.290Z,86.10
2018-12-15T08:58:49.320Z,133.00
2018-12-15T09:01:17.974Z,130.87
2018-12-15T09:03:46.736Z,117.00
2018-12-15T09:06:15.717Z,107.93
2018-12-15T09:08:44.676Z,95.90
2018-12-15T09:11:13.554Z,94.57
2018-12-15T09:13:42.466Z,88.97
2018-12-15T09:16:11.537Z,88.53
2018-12-15T09:18:40.199Z,83.93
2018-12-15T09:21:08.996Z,89.40
2018-12-15T09:23:37.741Z,87.43
2018-12-15T09:26:06.790Z,88.37
2018-12-15T09:28:35.849Z,84.20
2018-12-15T09:31:04.888Z,94.13
2018-12-15T09:33:33.565Z,94.07
2018-12-15T09:36:02.478Z,97.03
2018-12-15T09:38:31.070Z,88.07
2018-12-15T09:40:59.960Z,85.80
2018-12-15T09:43:28.892Z,83.47
2018-12-15T09:45:57.813Z,83.80
2018-12-15T09:48:26.797Z,93.30
2018-12-15T09:50:55.687Z,74.83
2018-12-15T09:53:24.542Z,71.03
2018-12-15T09:55:53.712Z,82.87
2018-12-15T09:58:22.463Z,76.00
2018-12-15T10:00:51.184Z,79.60
2018-12-15T10:03:20.285Z,75.23
2018-12-15T10:05:49.225Z,74.13
2018-12-15T10:08:18.138Z,70.20
2018-12-15T10:10:46.807Z,66.73
2018-12-15T10:13:15.839Z,79.50
2018-12-15T10:15:44.803Z,69.53
2018-12-15T10:18:13.558Z,73.13
2018-12-15T10:20:42.587Z,70.00
2018-12-15T10:23:11.649Z,219.33
2018-12-15T10:25:40.381Z,138.43
2018-12-15T10:28:09.397Z,80.27
2018-12-15T10:30:43.533Z,63.57
2018-12-15T10:33:12.543Z,177.57
2018-12-15T10:35:41.513Z,206.53
2018-12-15T10:38:10.544Z,101.83
2018-12-15T10:40:39.588Z,106.37
2018-12-15T10:43:08.541Z,73.30
2018-12-15T10:45:37.409Z,59.60
2018-12-15T10:48:06.320Z,67.17
2018-12-15T10:50:35.276Z,83.10
2018-12-15T10:53:04.044Z,85.47
2018-12-15T10:55:32.951Z,73.80
2018-12-15T10:58:01.877Z,79.33
2018-12-15T11:00:35.988Z,81.90
2018-12-15T11:03:05.187Z,69.33
2018-12-15T11:05:34.220Z,68.80
2018-12-15T11:08:03.216Z,60.27
2018-12-15T11:10:32.245Z,67.57
2018-12-15T11:13:01.047Z,61.53
2018-12-15T11:15:29.953Z,58.57
2018-12-15T11:17:58.914Z,54.53
2018-12-15T11:20:27.909Z,64.00
2018-12-15T11:22:57.004Z,58.67
2018-12-15T11:25:26.052Z,45.20
2018-12-15T11:27:54.987Z,46.13
2018-12-15T11:30:23.979Z,58.03
2018-12-15T11:32:53.020Z,49.80
2018-12-15T11:35:21.807Z,79.77
2018-12-15T11:37:50.857Z,117.90
2018-12-15T11:40:19.904Z,63.17
2018-12-15T11:42:48.970Z,54.07
2018-12-15T11:45:18.041Z,104.10
2018-12-15T11:47:47.007Z,98.93
2018-12-15T11:50:16.011Z,62.67
2018-12-15T11:52:45.014Z,65.53
2018-12-15T11:55:13.880Z,56.07
2018-12-15T11:57:42.708Z,99.70
2018-12-15T12:00:12.587Z,89.93
2018-12-15T12:02:41.797Z,55.60
2018-12-15T12:05:10.729Z,55.47
2018-12-15T12:07:39.848Z,58.30
2018-12-15T12:10:09.086Z,58.10
2018-12-15T12:12:38.076Z,52.60
2018-12-15T12:15:07.256Z,61.40
2018-12-15T12:17:36.332Z,49.67
2018-12-15T12:20:07.073Z,67.33
2018-12-15T12:22:35.923Z,69.60
2018-12-15T12:25:05.306Z,60.77
2018-12-15T12:27:34.167Z,61.40
2018-12-15T12:30:03.121Z,70.33
2018-12-15T12:32:32.605Z,60.77
2018-12-15T12:35:01.624Z,56.03
2018-12-15T12:37:30.458Z,68.63
2018-12-15T12:39:59.395Z,68.50
2018-12-15T12:42:28.157Z,67.37
2018-12-15T12:44:57.049Z,60.20
2018-12-15T12:47:26.043Z,56.27
2018-12-15T12:49:56.935Z,52.03
2018-12-15T12:52:25.813Z,42.43
2018-12-15T12:54:54.890Z,44.47
2018-12-15T12:57:23.958Z,43.87
2018-12-15T12:59:52.824Z,45.27
2018-12-15T13:02:21.685Z,42.43
2018-12-15T13:04:50.773Z,45.43
2018-12-15T13:07:19.862Z,49.30
2018-12-15T13:09:48.822Z,43.17
2018-12-15T13:12:17.888Z,41.30
2018-12-15T13:14:46.913Z,84.60
2018-12-15T13:17:16.010Z,201.30
2018-12-15T13:19:44.714Z,150.60
2018-12-15T13:22:14.777Z,74.47
2018-12-15T13:24:43.669Z,56.13
2018-12-15T13:27:12.425Z,59.97
2018-12-15T13:29:41.193Z,54.57
2018-12-15T13:32:10.144Z,56.87
2018-12-15T13:34:39.203Z,116.70
2018-12-15T13:37:08.277Z,93.03
2018-12-15T13:39:37.251Z,93.67
2018-12-15T13:42:07.162Z,68.93
2018-12-15T13:44:36.230Z,58.57
2018-12-15T13:47:04.867Z,54.87
2018-12-15T13:49:33.991Z,51.80
2018-12-15T13:52:03.042Z,51.20
2018-12-15T13:54:32.191Z,48.53
2018-12-15T13:57:01.222Z,61.37
2018-12-15T13:59:30.274Z,74.13
2018-12-15T14:01:59.163Z,57.00
2018-12-15T14:04:27.962Z,47.20
2018-12-15T14:06:56.840Z,48.10
2018-12-15T14:09:25.604Z,58.03
2018-12-15T14:11:54.541Z,52.60
2018-12-15T14:14:23.517Z,60.47
2018-12-15T14:16:52.554Z,55.53
2018-12-15T14:19:21.550Z,52.10
2018-12-15T14:21:50.571Z,61.63
2018-12-15T14:24:19.403Z,58.37
2018-12-15T14:26:48.516Z,75.00
2018-12-15T14:29:17.485Z,82.17
2018-12-15T14:31:46.435Z,93.27
2018-12-15T14:34:15.592Z,105.37
2018-12-15T14:36:44.344Z,96.70
2018-12-15T14:39:13.376Z,89.17
2018-12-15T14:41:42.423Z,85.40
2018-12-15T14:44:11.309Z,78.70
2018-12-15T14:46:40.311Z,72.57
2018-12-15T14:49:09.287Z,63.03
2018-12-15T14:51:38.311Z,60.93
2018-12-15T14:54:07.088Z,66.13
2018-12-15T14:56:36.100Z,76.73
2018-12-15T14:59:11.429Z,66.87
2018-12-15T15:01:40.145Z,67.80
2018-12-15T15:04:09.217Z,81.03
2018-12-15T15:06:38.245Z,93.67
2018-12-15T15:09:07.810Z,96.87
2018-12-15T15:11:36.886Z,88.50
2018-12-15T15:14:05.811Z,90.27
2018-12-15T15:16:34.863Z,109.20
2018-12-15T15:19:03.705Z,119.27
2018-12-15T15:21:32.698Z,113.47
2018-12-15T15:24:01.752Z,113.93
2018-12-15T15:26:30.781Z,106.97
2018-12-15T15:28:59.836Z,106.20
2018-12-15T15:31:28.695Z,105.57
2018-12-15T15:33:58.204Z,114.87
2018-12-15T15:36:28.179Z,111.97
2018-12-15T15:38:58.218Z,94.77
2018-12-15T15:41:27.104Z,95.03
2018-12-15T15:43:56.036Z,102.77
2018-12-15T15:46:24.739Z,110.23
2018-12-15T15:48:53.432Z,123.93
2018-12-15T15:51:22.302Z,120.70
2018-12-15T15:53:51.116Z,113.83
2018-12-15T15:56:19.945Z,135.23
2018-12-15T15:58:48.888Z,132.53
2018-12-15T16:01:17.795Z,132.77
2018-12-15T16:03:46.737Z,143.77
2018-12-15T16:06:15.826Z,126.00
2018-12-15T16:08:44.763Z,128.07
2018-12-15T16:11:14.140Z,160.70
2018-12-15T16:13:43.127Z,143.67
2018-12-15T16:16:22.863Z,143.63
2018-12-15T16:18:51.964Z,207.80
2018-12-15T16:21:20.979Z,215.20
2018-12-15T16:23:50.057Z,145.60
2018-12-15T16:26:18.920Z,160.40
2018-12-15T16:28:47.838Z,144.80
2018-12-15T16:31:16.771Z,150.70
2018-12-15T16:33:46.032Z,163.13
2018-12-15T16:36:15.061Z,155.83
2018-12-15T16:38:43.865Z,174.43
2018-12-15T16:41:12.549Z,197.47
2018-12-15T16:43:41.477Z,208.83
2018-12-15T16:46:10.468Z,186.17
2018-12-15T16:48:39.388Z,203.43
2018-12-15T16:51:08.352Z,133.97
2018-12-15T16:53:37.622Z,131.87
2018-12-15T16:56:06.499Z,171.80
2018-12-15T16:58:35.412Z,150.47
2018-12-15T17:01:04.592Z,166.10
2018-12-15T17:03:33.599Z,164.53
2018-12-15T17:06:02.707Z,150.00
2018-12-15T17:08:31.440Z,139.63
2018-12-15T17:11:00.604Z,135.17
2018-12-15T17:13:29.701Z,129.37
2018-12-15T17:15:58.430Z,126.20
2018-12-15T17:18:27.192Z,126.43
2018-12-15T17:20:56.863Z,128.30
2018-12-15T17:23:26.910Z,155.47
2018-12-15T17:25:55.642Z,136.93
2018-12-15T17:28:24.720Z,146.47
2018-12-15T17:30:53.816Z,145.70
2018-12-15T17:33:22.747Z,83.67
2018-12-15T17:35:51.645Z,235.33
2018-12-15T17:38:20.573Z,120.20
2018-12-15T17:40:49.634Z,82.83
2018-12-15T17:43:18.635Z,105.70
2018-12-15T17:45:47.543Z,114.00
2018-12-15T17:48:17.203Z,121.17
2018-12-15T17:50:47.041Z,111.00
2018-12-15T17:53:16.035Z,106.50
2018-12-15T17:55:45.009Z,89.40
2018-12-15T17:58:14.769Z,85.47
2018-12-15T18:00:44.231Z,92.60
2018-12-15T18:03:13.219Z,97.60
2018-12-15T18:05:42.156Z,117.00
2018-12-15T18:08:11.168Z,145.27
2018-12-15T18:10:40.260Z,210.30
2018-12-15T18:13:10.013Z,254.90
2018-12-15T18:15:38.953Z,261.80
2018-12-15T18:18:07.996Z,260.27
2018-12-15T18:20:37.140Z,182.73
2018-12-15T18:23:05.961Z,176.43
2018-12-15T18:25:34.966Z,170.33
2018-12-15T18:28:04.153Z,137.10
2018-12-15T18:30:33.161Z,116.53
2018-12-15T18:33:02.153Z,99.93
2018-12-15T18:35:31.722Z,105.47
2018-12-15T18:38:00.864Z,94.70
2018-12-15T18:40:29.633Z,100.30
2018-12-15T18:42:59.164Z,94.03
2018-12-15T18:45:28.075Z,106.13
2018-12-15T18:47:57.186Z,101.97
2018-12-15T18:50:26.187Z,101.43
2018-12-15T18:52:55.319Z,98.07
2018-12-15T18:55:25.220Z,97.20
2018-12-15T18:57:54.272Z,98.03
2018-12-15T19:00:23.017Z,106.03
2018-12-15T19:02:52.017Z,99.73
2018-12-15T19:05:20.838Z,99.57
2018-12-15T19:07:49.799Z,101.13
2018-12-15T19:10:18.888Z,102.93
2018-12-15T19:12:47.906Z,216.53
2018-12-15T19:15:16.867Z,125.60
2018-12-15T19:17:45.637Z,190.10
2018-12-15T19:20:14.456Z,193.93
2018-12-15T19:22:43.576Z,160.20
2018-12-15T19:25:13.100Z,166.10
2018-12-15T19:27:42.187Z,160.37
2018-12-15T19:30:12.004Z,197.93
2018-12-15T19:32:42.142Z,173.43
2018-12-15T19:35:11.666Z,160.63
2018-12-15T19:37:41.990Z,160.17
2018-12-15T19:40:10.995Z,153.37
2018-12-15T19:42:40.774Z,188.73
2018-12-15T19:45:09.893Z,176.03
2018-12-15T19:47:39.708Z,171.37
2018-12-15T19:50:09.339Z,169.20
2018-12-15T19:52:38.292Z,169.50
2018-12-15T19:55:07.564Z,171.97
2018-12-15T19:57:36.503Z,159.67
2018-12-15T20:00:05.940Z,167.77
2018-12-15T20:02:35.055Z,135.70
2018-12-15T20:05:04.045Z,130.60
2018-12-15T20:07:33.095Z,122.80
2018-12-15T20:10:02.209Z,105.57
2018-12-15T20:12:31.119Z,99.63
2018-12-15T20:15:00.188Z,99.13
2018-12-15T20:17:29.251Z,96.77
2018-12-15T20:19:58.241Z,87.30
2018-12-15T20:22:26.927Z,86.40
2018-12-15T20:24:56.602Z,87.70
2018-12-15T20:27:25.628Z,90.07
2018-12-15T20:29:54.640Z,93.87
2018-12-15T20:32:23.576Z,89.70
2018-12-15T20:34:52.543Z,98.30
2018-12-15T20:37:21.528Z,96.90
2018-12-15T20:39:50.189Z,87.23
2018-12-15T20:42:18.923Z,82.30
2018-12-15T20:44:48.484Z,86.43
2018-12-15T20:47:17.419Z,95.63
2018-12-15T20:49:46.045Z,101.00
2018-12-15T20:52:15.056Z,101.80
2018-12-15T20:54:44.057Z,100.07
2018-12-15T20:57:13.032Z,99.07
2018-12-15T20:59:41.887Z,103.37
2018-12-15T21:02:10.577Z,108.90
2018-12-15T21:04:39.585Z,105.67
2018-12-15T21:07:09.162Z,101.60
2018-12-15T21:09:38.188Z,104.23
2018-12-15T21:12:07.192Z,98.17
2018-12-15T21:14:36.260Z,86.87
2018-12-15T21:17:05.186Z,98.17
2018-12-15T21:19:33.960Z,91.07
2018-12-15T21:22:02.848Z,88.93
2018-12-15T21:24:31.840Z,83.93
2018-12-15T21:27:00.872Z,79.30
2018-12-15T21:29:29.490Z,89.57
2018-12-15T21:31:58.530Z,83.37
2018-12-15T21:34:27.546Z,83.50
2018-12-15T21:36:56.211Z,88.73
2018-12-15T21:39:24.881Z,87.13
2018-12-15T21:41:53.872Z,89.70
2018-12-15T21:44:23.024Z,79.87
2018-12-15T21:46:51.923Z,73.87
2018-12-15T21:49:20.586Z,67.20
2018-12-15T21:51:56.010Z,63.47
2018-12-15T21:54:20.141Z,65.87
2018-12-15T21:56:48.983Z,56.37
2018-12-15T21:59:18.036Z,55.10
2018-12-15T22:01:47.086Z,63.30
2018-12-15T22:04:16.069Z,52.93
2018-12-15T22:06:45.137Z,59.57
2018-12-15T22:09:14.148Z,57.33
2018-12-15T22:11:43.020Z,57.23
2018-12-15T22:14:12.020Z,53.17
2018-12-15T22:16:41.034Z,49.93
2018-12-15T22:19:10.008Z,50.70
2018-12-15T22:21:39.068Z,49.97
2018-12-15T22:24:07.782Z,42.17
2018-12-15T22:26:36.738Z,43.10
2018-12-15T22:29:05.668Z,39.67
2018-12-15T22:31:34.551Z,41.83
2018-12-15T22:34:03.340Z,40.63
2018-12-15T22:36:32.356Z,43.47
2018-12-15T22:39:01.334Z,41.13
2018-12-15T22:41:30.148Z,39.87
2018-12-15T22:43:58.869Z,40.73
2018-12-15T22:46:27.780Z,40.23
2018-12-15T22:48:56.623Z,40.47
2018-12-15T22:51:25.563Z,63.67
2018-12-15T22:53:54.447Z,37.37
2018-12-15T22:56:23.242Z,38.97
2018-12-15T22:58:52.047Z,37.87
2018-12-15T23:01:21.115Z,46.90
2018-12-15T23:03:50.040Z,40.80
2018-12-15T23:06:18.775Z,38.57
2018-12-15T23:08:47.668Z,53.57
2018-12-15T23:11:16.863Z,39.43
2018-12-15T23:13:45.739Z,34.80
2018-12-15T23:16:14.582Z,36.23
2018-12-15T23:18:43.352Z,34.60
2018-12-15T23:21:12.098Z,36.63
2018-12-15T23:23:40.825Z,32.80
2018-12-15T23:26:09.803Z,47.97
2018-12-15T23:28:38.601Z,28.67
2018-12-15T23:31:07.471Z,29.53
2018-12-15T23:33:36.279Z,29.47
2018-12-15T23:36:05.122Z,29.63
2018-12-15T23:38:34.078Z,31.10
2018-12-15T23:41:02.951Z,76.10
2018-12-15T23:43:31.927Z,27.43
2018-12-15T23:46:00.836Z,29.53
2018-12-15T23:48:29.808Z,28.90
2018-12-15T23:50:58.768Z,25.87
2018-12-15T23:53:27.990Z,31.07
2018-12-15T23:55:56.701Z,28.80
2018-12-15T23:58:25.652Z,26.63
